sensor_id;sensor_type;location;lat;lon;timestamp;pressure;altitude;pressure_sealevel;temperature;humidity
20013;BME280;10167;42.852;23.042;2023-04-27T00:00:09;94604.41;;;7.69;100.00
20013;BME280;10167;42.852;23.042;2023-04-27T00:02:39;94606.13;;;7.63;100.00
20013;BME280;10167;42.852;23.042;2023-04-27T00:05:09;94611.50;;;7.69;100.00
20013;BME280;10167;42.852;23.042;2023-04-27T00:07:41;94610.16;;;7.66;100.00
20013;BME280;10167;42.852;23.042;2023-04-27T00:10:10;94610.00;;;7.61;100.00
20013;BME280;10167;42.852;23.042;2023-04-27T00:12:40;94608.38;;;7.48;100.00
20013;BME280;10167;42.852;23.042;2023-04-27T00:15:09;94613.59;;;7.37;100.00
20013;BME280;10167;42.852;23.042;2023-04-27T00:17:39;94606.31;;;7.50;100.00
20013;BME280;10167;42.852;23.042;2023-04-27T00:20:10;94610.41;;;7.46;100.00
20013;BME280;10167;42.852;23.042;2023-04-27T00:22:41;94612.78;;;7.36;100.00
20013;BME280;10167;42.852;23.042;2023-04-27T00:25:10;94618.25;;;7.53;100.00
20013;BME280;10167;42.852;23.042;2023-04-27T00:27:39;94612.97;;;7.53;100.00
20013;BME280;10167;42.852;23.042;2023-04-27T00:30:09;94611.31;;;7.40;100.00
20013;BME280;10167;42.852;23.042;2023-04-27T00:32:38;94609.94;;;7.38;100.00
20013;BME280;10167;42.852;23.042;2023-04-27T00:35:09;94614.63;;;7.36;100.00
20013;BME280;10167;42.852;23.042;2023-04-27T00:37:38;94610.16;;;7.36;100.00
20013;BME280;10167;42.852;23.042;2023-04-27T00:40:10;94602.25;;;7.36;100.00
20013;BME280;10167;42.852;23.042;2023-04-27T00:42:39;94603.97;;;7.31;100.00
20013;BME280;10167;42.852;23.042;2023-04-27T00:45:09;94603.81;;;7.25;100.00
20013;BME280;10167;42.852;23.042;2023-04-27T00:47:40;94606.66;;;7.24;100.00
20013;BME280;10167;42.852;23.042;2023-04-27T00:50:10;94605.66;;;7.25;100.00
20013;BME280;10167;42.852;23.042;2023-04-27T00:52:39;94603.00;;;7.25;100.00
20013;BME280;10167;42.852;23.042;2023-04-27T00:55:10;94610.41;;;7.16;100.00
20013;BME280;10167;42.852;23.042;2023-04-27T00:57:40;94606.53;;;7.19;100.00
20013;BME280;10167;42.852;23.042;2023-04-27T01:00:11;94608.50;;;7.23;100.00
20013;BME280;10167;42.852;23.042;2023-04-27T01:02:40;94607.03;;;7.27;100.00
20013;BME280;10167;42.852;23.042;2023-04-27T01:05:11;94615.16;;;7.26;100.00
20013;BME280;10167;42.852;23.042;2023-04-27T01:07:40;94612.69;;;7.13;100.00
20013;BME280;10167;42.852;23.042;2023-04-27T01:10:11;94618.53;;;7.15;100.00
20013;BME280;10167;42.852;23.042;2023-04-27T01:12:41;94626.38;;;7.21;100.00
20013;BME280;10167;42.852;23.042;2023-04-27T01:15:11;94624.38;;;7.17;100.00
20013;BME280;10167;42.852;23.042;2023-04-27T01:17:40;94622.94;;;7.21;100.00
20013;BME280;10167;42.852;23.042;2023-04-27T01:20:10;94626.22;;;7.16;100.00
20013;BME280;10167;42.852;23.042;2023-04-27T01:22:39;94630.31;;;7.12;100.00
20013;BME280;10167;42.852;23.042;2023-04-27T01:25:11;94632.13;;;7.12;100.00
20013;BME280;10167;42.852;23.042;2023-04-27T01:27:40;94631.63;;;7.03;100.00
20013;BME280;10167;42.852;23.042;2023-04-27T01:30:10;94632.00;;;7.07;100.00
20013;BME280;10167;42.852;23.042;2023-04-27T01:32:39;94636.91;;;7.03;100.00
20013;BME280;10167;42.852;23.042;2023-04-27T01:35:09;94638.38;;;6.99;100.00
20013;BME280;10167;42.852;23.042;2023-04-27T01:37:39;94647.53;;;6.97;100.00
20013;BME280;10167;42.852;23.042;2023-04-27T01:40:11;94640.78;;;7.01;100.00
20013;BME280;10167;42.852;23.042;2023-04-27T01:42:40;94648.25;;;7.04;100.00
20013;BME280;10167;42.852;23.042;2023-04-27T01:45:10;94638.72;;;7.03;100.00
20013;BME280;10167;42.852;23.042;2023-04-27T01:47:40;94644.69;;;6.98;100.00
20013;BME280;10167;42.852;23.042;2023-04-27T01:50:11;94642.97;;;7.04;100.00
20013;BME280;10167;42.852;23.042;2023-04-27T01:52:40;94642.47;;;6.95;100.00
20013;BME280;10167;42.852;23.042;2023-04-27T01:55:10;94644.72;;;6.91;100.00
20013;BME280;10167;42.852;23.042;2023-04-27T01:57:40;94639.91;;;6.88;100.00
20013;BME280;10167;42.852;23.042;2023-04-27T02:00:10;94638.81;;;6.78;100.00
20013;BME280;10167;42.852;23.042;2023-04-27T02:02:49;94650.09;;;6.85;100.00
20013;BME280;10167;42.852;23.042;2023-04-27T02:05:22;94641.75;;;6.88;100.00
20013;BME280;10167;42.852;23.042;2023-04-27T02:07:53;94644.00;;;6.84;100.00
20013;BME280;10167;42.852;23.042;2023-04-27T02:10:24;94644.75;;;6.73;100.00
20013;BME280;10167;42.852;23.042;2023-04-27T02:12:59;94642.03;;;6.80;100.00
20013;BME280;10167;42.852;23.042;2023-04-27T02:15:29;94643.72;;;6.74;100.00
20013;BME280;10167;42.852;23.042;2023-04-27T02:18:00;94647.88;;;6.82;100.00
20013;BME280;10167;42.852;23.042;2023-04-27T02:20:30;94642.84;;;6.62;100.00
20013;BME280;10167;42.852;23.042;2023-04-27T02:23:00;94650.34;;;6.59;100.00
20013;BME280;10167;42.852;23.042;2023-04-27T02:25:31;94652.34;;;6.63;100.00
20013;BME280;10167;42.852;23.042;2023-04-27T02:28:01;94652.59;;;6.55;100.00
20013;BME280;10167;42.852;23.042;2023-04-27T02:30:30;94652.38;;;6.38;100.00
20013;BME280;10167;42.852;23.042;2023-04-27T02:33:00;94660.34;;;6.50;100.00
20013;BME280;10167;42.852;23.042;2023-04-27T02:35:31;94660.34;;;6.32;100.00
20013;BME280;10167;42.852;23.042;2023-04-27T02:38:00;94655.28;;;6.30;100.00
20013;BME280;10167;42.852;23.042;2023-04-27T02:40:30;94665.00;;;6.30;100.00
20013;BME280;10167;42.852;23.042;2023-04-27T02:42:59;94657.81;;;6.18;100.00
20013;BME280;10167;42.852;23.042;2023-04-27T02:45:28;94660.34;;;6.32;100.00
20013;BME280;10167;42.852;23.042;2023-04-27T02:47:58;94664.69;;;6.19;100.00
20013;BME280;10167;42.852;23.042;2023-04-27T02:50:27;94667.53;;;6.18;100.00
20013;BME280;10167;42.852;23.042;2023-04-27T02:52:56;94667.53;;;6.18;100.00
20013;BME280;10167;42.852;23.042;2023-04-27T02:55:26;94661.38;;;5.99;100.00
20013;BME280;10167;42.852;23.042;2023-04-27T02:57:57;94670.66;;;6.02;100.00
20013;BME280;10167;42.852;23.042;2023-04-27T03:00:27;94674.28;;;6.07;100.00
20013;BME280;10167;42.852;23.042;2023-04-27T03:02:56;94673.56;;;5.87;100.00
20013;BME280;10167;42.852;23.042;2023-04-27T03:05:25;94677.59;;;5.96;100.00
20013;BME280;10167;42.852;23.042;2023-04-27T03:07:55;94684.06;;;5.87;100.00
20013;BME280;10167;42.852;23.042;2023-04-27T03:10:24;94682.25;;;5.94;100.00
20013;BME280;10167;42.852;23.042;2023-04-27T03:12:53;94674.59;;;5.93;100.00
20013;BME280;10167;42.852;23.042;2023-04-27T03:15:24;94684.31;;;5.86;100.00
20013;BME280;10167;42.852;23.042;2023-04-27T03:17:53;94693.03;;;5.79;100.00
20013;BME280;10167;42.852;23.042;2023-04-27T03:20:23;94691.06;;;5.75;100.00
20013;BME280;10167;42.852;23.042;2023-04-27T03:22:53;94693.22;;;5.84;100.00
20013;BME280;10167;42.852;23.042;2023-04-27T03:25:23;94689.22;;;5.75;100.00
20013;BME280;10167;42.852;23.042;2023-04-27T03:27:52;94687.81;;;5.73;100.00
20013;BME280;10167;42.852;23.042;2023-04-27T03:30:23;94698.16;;;5.68;100.00
20013;BME280;10167;42.852;23.042;2023-04-27T03:32:53;94697.94;;;5.69;100.00
20013;BME280;10167;42.852;23.042;2023-04-27T03:35:23;94703.00;;;5.71;100.00
20013;BME280;10167;42.852;23.042;2023-04-27T03:37:52;94708.09;;;5.59;100.00
20013;BME280;10167;42.852;23.042;2023-04-27T03:40:22;94703.81;;;5.65;100.00
20013;BME280;10167;42.852;23.042;2023-04-27T03:42:51;94706.50;;;5.58;100.00
20013;BME280;10167;42.852;23.042;2023-04-27T03:45:20;94702.09;;;5.45;100.00
20013;BME280;10167;42.852;23.042;2023-04-27T03:47:53;94704.53;;;5.47;100.00
20013;BME280;10167;42.852;23.042;2023-04-27T03:50:22;94714.97;;;5.54;100.00
20013;BME280;10167;42.852;23.042;2023-04-27T03:52:52;94718.88;;;5.44;100.00
20013;BME280;10167;42.852;23.042;2023-04-27T03:55:21;94719.31;;;5.41;100.00
20013;BME280;10167;42.852;23.042;2023-04-27T03:57:51;94721.13;;;5.41;100.00
20013;BME280;10167;42.852;23.042;2023-04-27T04:00:20;94730.22;;;5.38;100.00
20013;BME280;10167;42.852;23.042;2023-04-27T04:02:49;94721.34;;;5.39;100.00
20013;BME280;10167;42.852;23.042;2023-04-27T04:05:21;94724.91;;;5.52;100.00
20013;BME280;10167;42.852;23.042;2023-04-27T04:07:50;94733.81;;;5.51;100.00
20013;BME280;10167;42.852;23.042;2023-04-27T04:10:21;94741.25;;;5.54;100.00
20013;BME280;10167;42.852;23.042;2023-04-27T04:12:50;94741.03;;;5.62;100.00
20013;BME280;10167;42.852;23.042;2023-04-27T04:15:19;94743.25;;;5.58;100.00
20013;BME280;10167;42.852;23.042;2023-04-27T04:17:50;94739.00;;;5.64;100.00
20013;BME280;10167;42.852;23.042;2023-04-27T04:20:22;94741.22;;;5.60;100.00
20013;BME280;10167;42.852;23.042;2023-04-27T04:22:51;94747.69;;;5.64;100.00
20013;BME280;10167;42.852;23.042;2023-04-27T04:25:20;94748.69;;;5.63;100.00
20013;BME280;10167;42.852;23.042;2023-04-27T04:27:49;94747.47;;;5.66;100.00
20013;BME280;10167;42.852;23.042;2023-04-27T04:30:18;94749.81;;;5.80;100.00
20013;BME280;10167;42.852;23.042;2023-04-27T04:32:49;94758.06;;;5.97;100.00
20013;BME280;10167;42.852;23.042;2023-04-27T04:35:19;94764.13;;;5.98;100.00
20013;BME280;10167;42.852;23.042;2023-04-27T04:37:50;94760.28;;;5.94;100.00
20013;BME280;10167;42.852;23.042;2023-04-27T04:40:20;94768.72;;;6.02;100.00
20013;BME280;10167;42.852;23.042;2023-04-27T04:42:49;94761.56;;;6.16;100.00
20013;BME280;10167;42.852;23.042;2023-04-27T04:45:19;94765.16;;;6.22;100.00
20013;BME280;10167;42.852;23.042;2023-04-27T04:47:49;94770.72;;;6.38;100.00
20013;BME280;10167;42.852;23.042;2023-04-27T04:50:21;94769.03;;;6.44;100.00
20013;BME280;10167;42.852;23.042;2023-04-27T04:52:52;94774.47;;;6.49;100.00
20013;BME280;10167;42.852;23.042;2023-04-27T04:55:25;94775.41;;;6.61;100.00
20013;BME280;10167;42.852;23.042;2023-04-27T04:57:54;94776.94;;;6.69;100.00
20013;BME280;10167;42.852;23.042;2023-04-27T05:00:23;94789.94;;;6.64;100.00
20013;BME280;10167;42.852;23.042;2023-04-27T05:02:53;94782.72;;;6.77;100.00
20013;BME280;10167;42.852;23.042;2023-04-27T05:05:22;94780.00;;;6.90;100.00
20013;BME280;10167;42.852;23.042;2023-04-27T05:07:53;94780.97;;;6.96;100.00
20013;BME280;10167;42.852;23.042;2023-04-27T05:10:22;94788.38;;;7.06;100.00
20013;BME280;10167;42.852;23.042;2023-04-27T05:12:51;94786.41;;;7.19;100.00
20013;BME280;10167;42.852;23.042;2023-04-27T05:15:20;94792.91;;;7.35;100.00
20013;BME280;10167;42.852;23.042;2023-04-27T05:17:49;94793.59;;;7.49;100.00
20013;BME280;10167;42.852;23.042;2023-04-27T05:20:20;94793.00;;;7.65;100.00
20013;BME280;10167;42.852;23.042;2023-04-27T05:22:50;94793.28;;;7.75;100.00
20013;BME280;10167;42.852;23.042;2023-04-27T05:25:20;94790.72;;;7.87;100.00
20013;BME280;10167;42.852;23.042;2023-04-27T05:27:49;94793.25;;;7.93;100.00
20013;BME280;10167;42.852;23.042;2023-04-27T05:30:19;94799.16;;;8.07;100.00
20013;BME280;10167;42.852;23.042;2023-04-27T05:32:48;94797.97;;;8.21;100.00
20013;BME280;10167;42.852;23.042;2023-04-27T05:35:17;94805.41;;;8.43;100.00
20013;BME280;10167;42.852;23.042;2023-04-27T05:37:47;94799.19;;;8.37;100.00
20013;BME280;10167;42.852;23.042;2023-04-27T05:40:16;94802.69;;;8.61;100.00
20013;BME280;10167;42.852;23.042;2023-04-27T05:42:48;94803.13;;;8.58;100.00
20013;BME280;10167;42.852;23.042;2023-04-27T05:45:18;94809.97;;;8.77;100.00
20013;BME280;10167;42.852;23.042;2023-04-27T05:47:48;94804.91;;;8.87;100.00
20013;BME280;10167;42.852;23.042;2023-04-27T05:50:17;94808.16;;;8.89;100.00
20013;BME280;10167;42.852;23.042;2023-04-27T05:52:46;94808.59;;;8.86;100.00
20013;BME280;10167;42.852;23.042;2023-04-27T05:55:16;94810.06;;;8.82;100.00
20013;BME280;10167;42.852;23.042;2023-04-27T05:57:48;94810.78;;;8.89;99.78
20013;BME280;10167;42.852;23.042;2023-04-27T06:00:33;94811.47;;;8.96;99.49
20013;BME280;10167;42.852;23.042;2023-04-27T06:03:03;94810.91;;;9.06;100.00
20013;BME280;10167;42.852;23.042;2023-04-27T06:05:32;94812.97;;;9.04;100.00
20013;BME280;10167;42.852;23.042;2023-04-27T06:08:02;94814.94;;;9.08;100.00
20013;BME280;10167;42.852;23.042;2023-04-27T06:10:31;94812.50;;;9.19;99.95
20013;BME280;10167;42.852;23.042;2023-04-27T06:13:02;94815.50;;;9.10;99.80
20013;BME280;10167;42.852;23.042;2023-04-27T06:15:31;94814.25;;;9.25;99.78
20013;BME280;10167;42.852;23.042;2023-04-27T06:18:00;94811.47;;;9.43;99.71
20013;BME280;10167;42.852;23.042;2023-04-27T06:20:30;94808.13;;;9.59;100.00
20013;BME280;10167;42.852;23.042;2023-04-27T06:23:00;94803.97;;;9.75;99.75
20013;BME280;10167;42.852;23.042;2023-04-27T06:25:29;94804.16;;;9.85;99.63
20013;BME280;10167;42.852;23.042;2023-04-27T06:27:58;94803.03;;;9.81;98.27
20013;BME280;10167;42.852;23.042;2023-04-27T06:30:29;94803.16;;;9.74;99.47
20013;BME280;10167;42.852;23.042;2023-04-27T06:32:58;94801.09;;;9.76;98.34
20013;BME280;10167;42.852;23.042;2023-04-27T06:35:27;94790.69;;;9.87;98.69
20013;BME280;10167;42.852;23.042;2023-04-27T06:37:56;94797.56;;;9.99;97.91
20013;BME280;10167;42.852;23.042;2023-04-27T06:40:25;94804.81;;;10.04;95.95
20013;BME280;10167;42.852;23.042;2023-04-27T06:42:55;94797.19;;;10.07;98.48
20013;BME280;10167;42.852;23.042;2023-04-27T06:45:24;94796.56;;;10.17;98.29
20013;BME280;10167;42.852;23.042;2023-04-27T06:47:55;94799.31;;;10.34;97.24
20013;BME280;10167;42.852;23.042;2023-04-27T06:50:24;94796.44;;;10.35;97.02
20013;BME280;10167;42.852;23.042;2023-04-27T06:52:53;94799.91;;;10.52;95.92
20013;BME280;10167;42.852;23.042;2023-04-27T06:55:23;94797.53;;;10.68;94.55
20013;BME280;10167;42.852;23.042;2023-04-27T06:57:52;94800.56;;;10.76;94.74
20013;BME280;10167;42.852;23.042;2023-04-27T07:00:21;94804.50;;;10.57;93.34
20013;BME280;10167;42.852;23.042;2023-04-27T07:02:50;94805.28;;;10.58;93.88
20013;BME280;10167;42.852;23.042;2023-04-27T07:05:21;94794.66;;;10.69;94.38
20013;BME280;10167;42.852;23.042;2023-04-27T07:07:50;94796.25;;;10.87;92.60
20013;BME280;10167;42.852;23.042;2023-04-27T07:10:20;94804.91;;;10.99;93.38
20013;BME280;10167;42.852;23.042;2023-04-27T07:12:49;94803.47;;;11.08;92.33
20013;BME280;10167;42.852;23.042;2023-04-27T07:15:20;94803.31;;;11.15;92.15
20013;BME280;10167;42.852;23.042;2023-04-27T07:17:50;94801.22;;;11.00;91.58
20013;BME280;10167;42.852;23.042;2023-04-27T07:20:22;94811.66;;;11.07;91.43
20013;BME280;10167;42.852;23.042;2023-04-27T07:22:51;94793.66;;;11.09;91.16
20013;BME280;10167;42.852;23.042;2023-04-27T07:25:20;94802.56;;;11.19;89.55
20013;BME280;10167;42.852;23.042;2023-04-27T07:27:49;94800.25;;;11.23;89.61
20013;BME280;10167;42.852;23.042;2023-04-27T07:30:19;94801.81;;;11.57;88.21
20013;BME280;10167;42.852;23.042;2023-04-27T07:32:49;94796.31;;;11.64;91.33
20013;BME280;10167;42.852;23.042;2023-04-27T07:35:22;94801.66;;;11.86;91.63
20013;BME280;10167;42.852;23.042;2023-04-27T07:37:52;94797.19;;;11.70;89.88
20013;BME280;10167;42.852;23.042;2023-04-27T07:40:23;94798.41;;;11.79;87.78
20013;BME280;10167;42.852;23.042;2023-04-27T07:42:52;94798.03;;;11.92;88.23
20013;BME280;10167;42.852;23.042;2023-04-27T07:45:21;94796.06;;;12.04;88.77
20013;BME280;10167;42.852;23.042;2023-04-27T07:47:59;94801.38;;;12.04;89.40
20013;BME280;10167;42.852;23.042;2023-04-27T07:50:30;94800.75;;;12.19;87.75
20013;BME280;10167;42.852;23.042;2023-04-27T07:53:00;94797.47;;;12.12;88.90
20013;BME280;10167;42.852;23.042;2023-04-27T07:55:29;94795.00;;;12.27;89.90
20013;BME280;10167;42.852;23.042;2023-04-27T07:57:59;94807.81;;;12.35;86.25
20013;BME280;10167;42.852;23.042;2023-04-27T08:00:28;94802.22;;;12.58;86.61
20013;BME280;10167;42.852;23.042;2023-04-27T08:02:57;94813.72;;;12.64;84.40
20013;BME280;10167;42.852;23.042;2023-04-27T08:05:27;94808.84;;;12.88;88.74
20013;BME280;10167;42.852;23.042;2023-04-27T08:07:58;94809.50;;;13.00;85.55
20013;BME280;10167;42.852;23.042;2023-04-27T08:10:28;94815.91;;;13.04;84.09
20013;BME280;10167;42.852;23.042;2023-04-27T08:12:57;94805.84;;;13.06;85.59
20013;BME280;10167;42.852;23.042;2023-04-27T08:15:27;94810.75;;;13.19;84.52
20013;BME280;10167;42.852;23.042;2023-04-27T08:17:56;94808.25;;;13.07;83.45
20013;BME280;10167;42.852;23.042;2023-04-27T08:20:25;94802.72;;;13.14;83.51
20013;BME280;10167;42.852;23.042;2023-04-27T08:22:55;94800.50;;;13.38;83.07
20013;BME280;10167;42.852;23.042;2023-04-27T08:25:25;94803.78;;;13.55;85.58
20013;BME280;10167;42.852;23.042;2023-04-27T08:27:54;94813.00;;;13.79;84.93
20013;BME280;10167;42.852;23.042;2023-04-27T08:30:24;94810.91;;;13.92;83.47
20013;BME280;10167;42.852;23.042;2023-04-27T08:32:53;94806.91;;;13.84;78.95
20013;BME280;10167;42.852;23.042;2023-04-27T08:35:22;94806.81;;;13.69;81.21
20013;BME280;10167;42.852;23.042;2023-04-27T08:37:51;94802.16;;;13.96;81.99
20013;BME280;10167;42.852;23.042;2023-04-27T08:40:21;94812.84;;;14.06;79.48
20013;BME280;10167;42.852;23.042;2023-04-27T08:42:57;94802.16;;;13.96;80.96
20013;BME280;10167;42.852;23.042;2023-04-27T08:45:27;94798.38;;;13.82;82.14
20013;BME280;10167;42.852;23.042;2023-04-27T08:47:56;94805.50;;;14.29;81.62
20013;BME280;10167;42.852;23.042;2023-04-27T08:50:25;94808.44;;;14.32;82.10
20013;BME280;10167;42.852;23.042;2023-04-27T08:52:55;94817.72;;;14.25;79.69
20013;BME280;10167;42.852;23.042;2023-04-27T08:55:24;94805.88;;;14.63;81.04
20013;BME280;10167;42.852;23.042;2023-04-27T08:57:56;94815.47;;;14.79;77.60
20013;BME280;10167;42.852;23.042;2023-04-27T09:00:37;94812.03;;;14.73;79.77
20013;BME280;10167;42.852;23.042;2023-04-27T09:03:17;94811.50;;;14.92;77.22
20013;BME280;10167;42.852;23.042;2023-04-27T09:05:49;94809.09;;;14.85;76.67
20013;BME280;10167;42.852;23.042;2023-04-27T09:08:43;94801.88;;;14.55;78.35
20013;BME280;10167;42.852;23.042;2023-04-27T09:11:14;94804.03;;;14.73;78.98
20013;BME280;10167;42.852;23.042;2023-04-27T09:13:45;94814.69;;;14.94;78.96
20013;BME280;10167;42.852;23.042;2023-04-27T09:16:14;94803.78;;;15.05;78.16
20013;BME280;10167;42.852;23.042;2023-04-27T09:18:43;94803.22;;;15.49;78.87
20013;BME280;10167;42.852;23.042;2023-04-27T09:21:21;94801.38;;;15.29;77.92
20013;BME280;10167;42.852;23.042;2023-04-27T09:23:51;94799.25;;;15.56;77.10
20013;BME280;10167;42.852;23.042;2023-04-27T09:26:21;94800.31;;;15.45;73.36
20013;BME280;10167;42.852;23.042;2023-04-27T09:28:54;94792.56;;;15.59;73.38
20013;BME280;10167;42.852;23.042;2023-04-27T09:31:30;94801.38;;;15.59;72.73
20013;BME280;10167;42.852;23.042;2023-04-27T09:34:00;94786.94;;;15.50;76.97
20013;BME280;10167;42.852;23.042;2023-04-27T09:36:30;94797.34;;;15.77;74.27
20013;BME280;10167;42.852;23.042;2023-04-27T09:39:02;94789.53;;;15.96;71.59
20013;BME280;10167;42.852;23.042;2023-04-27T09:41:32;94785.00;;;15.96;70.01
20013;BME280;10167;42.852;23.042;2023-04-27T09:44:03;94786.59;;;15.92;69.00
20013;BME280;10167;42.852;23.042;2023-04-27T09:46:33;94780.44;;;16.02;67.56
20013;BME280;10167;42.852;23.042;2023-04-27T09:49:04;94772.44;;;16.02;69.95
20013;BME280;10167;42.852;23.042;2023-04-27T09:51:33;94776.66;;;16.03;66.87
20013;BME280;10167;42.852;23.042;2023-04-27T09:54:03;94782.22;;;16.22;65.30
20013;BME280;10167;42.852;23.042;2023-04-27T09:56:40;94782.97;;;16.27;66.64
20013;BME280;10167;42.852;23.042;2023-04-27T09:59:29;94775.41;;;15.90;69.29
20013;BME280;10167;42.852;23.042;2023-04-27T10:02:04;94776.41;;;16.10;66.71
20013;BME280;10167;42.852;23.042;2023-04-27T10:05:09;94772.06;;;16.19;66.83
20013;BME280;10167;42.852;23.042;2023-04-27T10:07:43;94768.00;;;16.31;65.58
20013;BME280;10167;42.852;23.042;2023-04-27T10:10:17;94772.69;;;16.55;64.19
20013;BME280;10167;42.852;23.042;2023-04-27T10:12:56;94765.09;;;16.77;63.07
20013;BME280;10167;42.852;23.042;2023-04-27T10:15:27;94756.91;;;16.97;63.63
20013;BME280;10167;42.852;23.042;2023-04-27T10:18:03;94755.75;;;17.09;67.31
20013;BME280;10167;42.852;23.042;2023-04-27T10:20:35;94778.81;;;17.33;61.47
20013;BME280;10167;42.852;23.042;2023-04-27T10:23:04;94768.66;;;17.35;60.49
20013;BME280;10167;42.852;23.042;2023-04-27T10:25:37;94779.38;;;17.30;57.30
20013;BME280;10167;42.852;23.042;2023-04-27T10:28:07;94779.09;;;17.32;60.86
20013;BME280;10167;42.852;23.042;2023-04-27T10:30:38;94765.81;;;16.88;58.23
20013;BME280;10167;42.852;23.042;2023-04-27T10:33:15;94767.69;;;17.50;57.54
20013;BME280;10167;42.852;23.042;2023-04-27T10:35:54;94775.78;;;17.45;58.45
20013;BME280;10167;42.852;23.042;2023-04-27T10:38:27;94772.13;;;17.36;57.29
20013;BME280;10167;42.852;23.042;2023-04-27T10:40:58;94773.94;;;17.12;58.80
20013;BME280;10167;42.852;23.042;2023-04-27T10:43:30;94764.56;;;17.43;59.94
20013;BME280;10167;42.852;23.042;2023-04-27T10:46:08;94780.78;;;17.23;57.44
20013;BME280;10167;42.852;23.042;2023-04-27T10:48:39;94769.03;;;16.85;56.21
20013;BME280;10167;42.852;23.042;2023-04-27T10:51:09;94767.56;;;16.68;58.14
20013;BME280;10167;42.852;23.042;2023-04-27T10:53:38;94775.63;;;17.02;57.04
20013;BME280;10167;42.852;23.042;2023-04-27T10:56:09;94766.69;;;16.78;55.83
20013;BME280;10167;42.852;23.042;2023-04-27T10:58:39;94777.00;;;16.95;56.29
20013;BME280;10167;42.852;23.042;2023-04-27T11:01:24;94775.50;;;16.79;56.58
20013;BME280;10167;42.852;23.042;2023-04-27T11:03:54;94781.91;;;17.17;56.34
20013;BME280;10167;42.852;23.042;2023-04-27T11:06:23;94772.13;;;17.02;54.52
20013;BME280;10167;42.852;23.042;2023-04-27T11:08:53;94780.16;;;17.02;57.83
20013;BME280;10167;42.852;23.042;2023-04-27T11:11:22;94776.03;;;16.81;54.38
20013;BME280;10167;42.852;23.042;2023-04-27T11:13:54;94769.25;;;16.49;53.44
20013;BME280;10167;42.852;23.042;2023-04-27T11:16:25;94769.25;;;16.93;59.71
20013;BME280;10167;42.852;23.042;2023-04-27T11:19:03;94775.44;;;16.40;56.54
20013;BME280;10167;42.852;23.042;2023-04-27T11:21:32;94761.66;;;16.22;57.57
20013;BME280;10167;42.852;23.042;2023-04-27T11:24:05;94776.31;;;16.30;56.86
20013;BME280;10167;42.852;23.042;2023-04-27T11:26:35;94772.78;;;15.70;57.29
20013;BME280;10167;42.852;23.042;2023-04-27T11:29:05;94785.56;;;15.88;60.03
20013;BME280;10167;42.852;23.042;2023-04-27T11:31:42;94779.47;;;15.52;58.34
20013;BME280;10167;42.852;23.042;2023-04-27T11:34:15;94775.78;;;15.13;58.79
20013;BME280;10167;42.852;23.042;2023-04-27T11:36:56;94781.63;;;15.40;59.14
20013;BME280;10167;42.852;23.042;2023-04-27T11:39:44;94786.31;;;15.94;60.69
20013;BME280;10167;42.852;23.042;2023-04-27T11:42:14;94783.66;;;15.94;57.83
20013;BME280;10167;42.852;23.042;2023-04-27T11:44:51;94781.25;;;16.03;57.86
20013;BME280;10167;42.852;23.042;2023-04-27T11:47:22;94773.31;;;15.72;56.11
20013;BME280;10167;42.852;23.042;2023-04-27T11:49:54;94782.38;;;15.71;59.70
20013;BME280;10167;42.852;23.042;2023-04-27T11:52:27;94786.31;;;15.94;59.25
20013;BME280;10167;42.852;23.042;2023-04-27T11:54:58;94789.59;;;16.45;58.29
20013;BME280;10167;42.852;23.042;2023-04-27T11:57:34;94798.72;;;16.34;56.85
20013;BME280;10167;42.852;23.042;2023-04-27T12:00:05;94791.03;;;16.22;55.75
20013;BME280;10167;42.852;23.042;2023-04-27T12:02:44;94787.63;;;16.61;56.45
20013;BME280;10167;42.852;23.042;2023-04-27T12:05:17;94787.94;;;16.98;54.81
20013;BME280;10167;42.852;23.042;2023-04-27T12:07:46;94787.03;;;17.42;51.57
20013;BME280;10167;42.852;23.042;2023-04-27T12:10:16;94798.78;;;17.46;53.08
20013;BME280;10167;42.852;23.042;2023-04-27T12:12:45;94789.59;;;17.57;51.83
20013;BME280;10167;42.852;23.042;2023-04-27T12:15:15;94793.53;;;16.63;52.09
20013;BME280;10167;42.852;23.042;2023-04-27T12:17:45;94787.72;;;16.46;53.20
20013;BME280;10167;42.852;23.042;2023-04-27T12:20:15;94789.88;;;15.64;54.85
20013;BME280;10167;42.852;23.042;2023-04-27T12:22:44;94784.28;;;15.50;59.15
20013;BME280;10167;42.852;23.042;2023-04-27T12:25:13;94786.66;;;15.72;56.49
20013;BME280;10167;42.852;23.042;2023-04-27T12:27:45;94784.00;;;15.62;57.11
20013;BME280;10167;42.852;23.042;2023-04-27T12:30:15;94786.41;;;15.53;55.92
20013;BME280;10167;42.852;23.042;2023-04-27T12:32:46;94780.75;;;15.85;55.54
20013;BME280;10167;42.852;23.042;2023-04-27T12:35:16;94778.56;;;16.57;54.91
20013;BME280;10167;42.852;23.042;2023-04-27T12:37:45;94792.59;;;17.17;51.01
20013;BME280;10167;42.852;23.042;2023-04-27T12:40:16;94799.97;;;17.35;50.79
20013;BME280;10167;42.852;23.042;2023-04-27T12:42:45;94789.13;;;17.79;48.74
20013;BME280;10167;42.852;23.042;2023-04-27T12:45:15;94783.22;;;18.48;48.24
20013;BME280;10167;42.852;23.042;2023-04-27T12:47:44;94791.28;;;18.67;45.12
20013;BME280;10167;42.852;23.042;2023-04-27T12:50:30;94783.72;;;17.26;45.94
20013;BME280;10167;42.852;23.042;2023-04-27T12:53:00;94783.38;;;17.33;45.78
20013;BME280;10167;42.852;23.042;2023-04-27T12:55:29;94780.47;;;18.11;47.84
20013;BME280;10167;42.852;23.042;2023-04-27T12:58:01;94780.06;;;18.84;43.81
20013;BME280;10167;42.852;23.042;2023-04-27T13:00:31;94788.59;;;19.56;40.63
20013;BME280;10167;42.852;23.042;2023-04-27T13:03:00;94784.78;;;20.30;37.48
20013;BME280;10167;42.852;23.042;2023-04-27T13:05:32;94784.28;;;18.47;38.20
20013;BME280;10167;42.852;23.042;2023-04-27T13:08:01;94775.56;;;17.70;40.20